createdAt,value
2022-11-17T00:02:30.227Z,2.28
2022-11-17T00:07:39.075Z,3.35
2022-11-17T00:13:06.680Z,2.15
2022-11-17T00:18:31.973Z,1.27
2022-11-17T00:23:51.880Z,5.20
2022-11-17T00:29:02.487Z,3.30
2022-11-17T00:34:33.832Z,1.50
2022-11-17T00:39:38.708Z,0.98
2022-11-17T00:44:43.278Z,1.40
2022-11-17T00:49:56.563Z,1.42
2022-11-17T00:55:02.680Z,1.25
2022-11-17T01:00:09.519Z,3.92
2022-11-17T01:05:15.966Z,3.65
2022-11-17T01:10:22.002Z,1.58
2022-11-17T01:15:28.015Z,1.55
2022-11-17T01:20:35.862Z,1.77
2022-11-17T01:31:21.566Z,1.83
2022-11-17T01:36:29.526Z,2.78
2022-11-17T01:41:32.613Z,2.60
2022-11-17T01:46:44.445Z,1.35
2022-11-17T01:57:23.030Z,2.40
2022-11-17T02:05:43.589Z,2.17
2022-11-17T02:10:51.597Z,1.67
2022-11-17T02:16:00.846Z,1.90
2022-11-17T02:21:30.752Z,2.05
2022-11-17T02:26:56.142Z,1.70
2022-11-17T02:31:59.494Z,1.50
2022-11-17T02:37:25.537Z,0.60
2022-11-17T02:42:55.378Z,1.00
2022-11-17T02:53:08.385Z,1.00
2022-11-17T02:58:23.844Z,0.75
2022-11-17T03:03:58.149Z,0.95
2022-11-17T03:09:19.844Z,0.82
2022-11-17T03:15:10.460Z,1.40
2022-11-17T03:20:30.976Z,0.88
2022-11-17T03:26:01.164Z,1.52
2022-11-17T03:31:12.289Z,0.70
2022-11-17T03:36:34.668Z,2.08
2022-11-17T03:41:52.581Z,2.78
2022-11-17T03:47:10.147Z,0.95
2022-11-17T03:52:21.423Z,1.48
2022-11-17T03:58:09.540Z,1.27
2022-11-17T04:07:22.650Z,0.68
2022-11-17T04:12:43.134Z,1.98
2022-11-17T04:17:45.029Z,1.58
2022-11-17T04:28:27.379Z,1.40
2022-11-17T04:33:29.302Z,0.57
2022-11-17T04:38:31.322Z,1.27
2022-11-17T04:43:33.713Z,1.25
2022-11-17T04:48:35.816Z,1.45
2022-11-17T04:58:41.002Z,1.00
2022-11-17T05:03:45.792Z,3.38
2022-11-17T05:08:49.017Z,2.75
2022-11-17T05:13:52.223Z,1.63
2022-11-17T05:32:44.798Z,3.50
2022-11-17T05:37:46.905Z,1.85
2022-11-17T05:42:54.321Z,3.33
2022-11-17T05:47:58.915Z,2.97
2022-11-17T05:53:00.836Z,3.15
2022-11-17T05:58:24.894Z,3.40
2022-11-17T06:03:39.757Z,4.30
2022-11-17T06:08:42.488Z,1.83
2022-11-17T06:13:44.577Z,2.00
2022-11-17T06:18:51.895Z,3.33
2022-11-17T06:23:54.559Z,2.05
2022-11-17T06:28:57.137Z,2.92
2022-11-17T06:34:02.591Z,2.78
2022-11-17T06:39:04.485Z,2.42
2022-11-17T06:49:09.158Z,2.22
2022-11-17T06:54:12.486Z,2.75
2022-11-17T06:59:16.178Z,4.90
2022-11-17T07:04:18.090Z,2.95
2022-11-17T07:19:24.218Z,3.22
2022-11-17T07:24:26.213Z,5.97
2022-11-17T07:29:31.462Z,7.93
2022-11-17T07:34:33.507Z,6.15
2022-11-17T07:39:35.532Z,6.30
2022-11-17T07:44:37.581Z,5.63
2022-11-17T07:49:39.532Z,4.80
2022-11-17T07:54:45.926Z,9.38
2022-11-17T07:59:47.911Z,7.60
2022-11-17T08:04:50.153Z,7.20
2022-11-17T08:10:01.650Z,5.88
2022-11-17T08:15:04.149Z,5.43
2022-11-17T08:20:06.640Z,2.90
2022-11-17T08:25:14.984Z,3.28
2022-11-17T08:30:20.650Z,3.53
2022-11-17T08:35:24.823Z,3.67
2022-11-17T08:40:27.298Z,3.95
2022-11-17T08:45:29.614Z,7.55
2022-11-17T08:50:31.624Z,7.22
2022-11-17T08:55:40.953Z,4.07
2022-11-17T09:00:45.452Z,5.65
2022-11-17T09:05:48.853Z,4.05
2022-11-17T09:10:51.736Z,5.93
2022-11-17T09:15:53.772Z,6.25
2022-11-17T09:21:03.616Z,4.35
2022-11-17T09:26:10.218Z,4.32
2022-11-17T09:31:17.849Z,4.50
2022-11-17T09:36:24.458Z,5.38
2022-11-17T09:41:41.225Z,6.28
2022-11-17T09:47:34.988Z,5.32
2022-11-17T09:52:43.222Z,4.72
2022-11-17T09:57:52.500Z,7.13
2022-11-17T10:02:57.441Z,6.32
2022-11-17T10:08:06.563Z,7.43
2022-11-17T10:13:38.378Z,4.85
2022-11-17T10:18:46.088Z,4.55
2022-11-17T10:23:57.996Z,7.70
2022-11-17T10:29:12.838Z,7.05
2022-11-17T10:34:42.560Z,5.75
2022-11-17T10:39:45.671Z,13.50
2022-11-17T10:44:52.365Z,7.00
2022-11-17T10:50:25.306Z,7.25
2022-11-17T10:55:31.897Z,10.88
2022-11-17T11:00:37.176Z,10.27
2022-11-17T11:05:58.089Z,9.23
2022-11-17T11:11:02.434Z,11.37
2022-11-17T11:16:05.388Z,6.70
2022-11-17T11:21:18.422Z,6.40
2022-11-17T11:26:36.794Z,8.98
2022-11-17T11:32:03.359Z,9.60
2022-11-17T11:37:15.529Z,5.82
2022-11-17T11:42:46.461Z,8.18
2022-11-17T11:48:17.271Z,4.40
2022-11-17T11:53:52.578Z,6.15
2022-11-17T11:59:02.644Z,5.82
2022-11-17T12:04:20.621Z,3.00
2022-11-17T12:09:48.751Z,3.20
2022-11-17T12:15:29.298Z,5.53
2022-11-17T12:20:31.318Z,7.00
2022-11-17T12:25:36.275Z,4.55
2022-11-17T12:30:44.017Z,2.40
2022-11-17T12:35:46.284Z,2.40
2022-11-17T12:40:55.197Z,2.53
2022-11-17T12:46:26.482Z,6.65
2022-11-17T12:51:46.149Z,2.28
2022-11-17T12:57:15.753Z,6.70
2022-11-17T13:02:27.963Z,2.45
2022-11-17T13:07:30.099Z,1.77
2022-11-17T13:12:34.045Z,3.42
2022-11-17T13:17:43.674Z,4.35
2022-11-17T13:23:02.848Z,6.78
2022-11-17T13:28:05.939Z,3.15
2022-11-17T13:33:20.021Z,4.57
2022-11-17T13:38:23.916Z,3.42
2022-11-17T13:43:39.650Z,4.25
2022-11-17T13:48:46.425Z,5.50
2022-11-17T13:53:56.795Z,2.42
2022-11-17T13:59:01.886Z,7.63
2022-11-17T14:04:22.325Z,5.25
2022-11-17T14:09:26.920Z,4.60
2022-11-17T14:14:41.022Z,8.55
2022-11-17T14:19:43.092Z,9.55
2022-11-17T14:24:45.314Z,6.03
2022-11-17T14:29:47.267Z,5.13
2022-11-17T14:34:49.240Z,3.00
2022-11-17T14:39:51.114Z,3.38
2022-11-17T14:44:53.069Z,2.78
2022-11-17T14:49:54.993Z,3.38
2022-11-17T14:54:59.008Z,2.75
2022-11-17T15:00:01.098Z,2.28
2022-11-17T15:05:04.309Z,2.58
2022-11-17T15:10:07.557Z,3.22
2022-11-17T15:15:10.003Z,3.20
2022-11-17T15:20:12.217Z,4.68
2022-11-17T15:25:14.248Z,4.30
2022-11-17T15:30:16.642Z,2.78
2022-11-17T15:35:22.118Z,2.80
2022-11-17T15:40:29.668Z,2.30
2022-11-17T15:45:34.771Z,2.47
2022-11-17T15:50:36.795Z,2.30
2022-11-17T15:55:39.500Z,2.45
2022-11-17T16:00:41.650Z,3.80
2022-11-17T16:05:49.480Z,4.90
2022-11-17T16:10:54.405Z,5.00
2022-11-17T16:15:57.313Z,3.13
2022-11-17T16:21:04.858Z,3.03
2022-11-17T16:26:08.252Z,3.55
2022-11-17T16:31:28.620Z,2.20
2022-11-17T16:36:36.134Z,2.50
2022-11-17T16:41:41.257Z,3.25
2022-11-17T16:46:45.320Z,3.60
2022-11-17T16:51:54.402Z,5.20
2022-11-17T16:56:56.380Z,3.65
2022-11-17T17:01:58.301Z,3.33
2022-11-17T17:07:01.151Z,2.88
2022-11-17T17:12:03.762Z,3.60
2022-11-17T17:17:05.967Z,2.45
2022-11-17T17:22:08.149Z,6.22
2022-11-17T17:27:10.120Z,2.72
2022-11-17T17:32:12.117Z,2.70
2022-11-17T17:37:14.298Z,4.50
2022-11-17T17:42:16.438Z,5.47
2022-11-17T17:47:18.648Z,7.38
2022-11-17T17:52:20.640Z,9.27
2022-11-17T17:57:28.704Z,9.82
2022-11-17T18:02:37.022Z,7.70
2022-11-17T18:07:39.333Z,7.10
2022-11-17T18:12:41.424Z,9.10
2022-11-17T18:17:47.759Z,10.35
2022-11-17T18:22:52.991Z,10.07
2022-11-17T18:27:55.213Z,8.25
2022-11-17T18:33:03.068Z,4.68
2022-11-17T18:38:06.175Z,7.35
2022-11-17T18:43:08.320Z,6.18
2022-11-17T18:48:10.198Z,4.97
2022-11-17T18:53:12.206Z,6.28
2022-11-17T18:58:14.153Z,7.82
2022-11-17T19:03:16.027Z,6.10
2022-11-17T19:08:18.030Z,9.32
2022-11-17T19:13:21.425Z,7.57
2022-11-17T19:18:23.377Z,3.78
2022-11-17T19:23:25.412Z,2.78
2022-11-17T19:28:27.341Z,2.75
2022-11-17T19:33:31.632Z,2.08
2022-11-17T19:38:34.931Z,2.67
2022-11-17T19:43:43.400Z,3.67
2022-11-17T19:48:47.089Z,2.17
2022-11-17T19:53:53.512Z,1.05
2022-11-17T19:58:56.318Z,1.10
2022-11-17T20:04:00.641Z,1.30
2022-11-17T20:09:08.172Z,3.97
2022-11-17T20:14:10.849Z,9.30
2022-11-17T20:19:14.164Z,7.88
2022-11-17T20:24:16.424Z,7.13
2022-11-17T20:29:18.756Z,4.28
2022-11-17T20:34:21.090Z,9.00
2022-11-17T20:39:35.428Z,4.65
2022-11-17T20:44:37.528Z,2.35
2022-11-17T20:49:39.549Z,6.22
2022-11-17T20:54:41.878Z,2.47
2022-11-17T20:59:44.256Z,10.50
2022-11-17T21:04:46.277Z,4.00
2022-11-17T21:09:48.241Z,2.70
2022-11-17T21:14:50.400Z,6.05
2022-11-17T21:19:53.175Z,2.90
2022-11-17T21:24:55.204Z,2.05
2022-11-17T21:29:57.347Z,5.82
2022-11-17T21:35:02.362Z,3.55
2022-11-17T21:40:05.604Z,2.63
2022-11-17T21:45:08.457Z,1.58
2022-11-17T21:50:10.743Z,2.58
2022-11-17T21:55:12.871Z,2.55
2022-11-17T22:00:16.530Z,2.83
2022-11-17T22:05:18.543Z,4.18
2022-11-17T22:10:20.628Z,4.65
2022-11-17T22:15:22.540Z,5.38
2022-11-17T22:20:24.541Z,5.20
2022-11-17T22:25:56.434Z,2.90
2022-11-17T22:30:48.655Z,2.00
2022-11-17T22:35:50.575Z,1.38
2022-11-17T22:40:52.590Z,2.08
2022-11-17T22:45:54.605Z,1.67
2022-11-17T22:50:59.813Z,9.77
2022-11-17T22:56:03.594Z,8.30
2022-11-17T23:01:07.669Z,6.45
2022-11-17T23:06:09.706Z,3.60
2022-11-17T23:16:34.144Z,2.33
2022-11-17T23:21:36.557Z,2.83
2022-11-17T23:26:40.266Z,3.42
2022-11-17T23:31:42.381Z,4.55
2022-11-17T23:36:47.853Z,3.78
2022-11-17T23:41:49.803Z,4.15
2022-11-17T23:46:51.802Z,3.33
2022-11-17T23:51:53.799Z,4.07
2022-11-17T23:56:55.833Z,4.28
